Detall de PIREP

Printer-friendly versionPDF version

[2013/04/21 08:41:00]
Flight IATA:CT3119
Pilot Number:012
Company ICAO:CAT
Aircraft Type:F70/A
PAX:44
Aircraft Registration:PFJ
Departing Airport: LFMP
Destination Airport: LEPA
Alternate Airport:LEBL
Online: VATSIM
Route:BEXUR A27 KENAS
Flight Level:F190
No Slew and time accel
No pause
Crash detect
Detect pilot in Cockpit between each 30 and 45 minutes
08:41 Zero fuel Weight: 64363 Lbs, Fuel Weight: 7380 Lbs
08:41 VATSIM:LFMP 210830Z 31017KT 280V340 9999 FEW083 14/02 Q1019 NOSIG
08:41 VATSIM:LEPA 210830Z 23010KT 200V270 9999 FEW020 18/10 Q1019 NOSIG
08:42 VOICE CATALONIAN
08:42 Parking Brakes off
08:45 Take-off
08:45 Take off Weight: 71537 Lbs
08:45 Wind: 312º @ 015 Knots Heading: 327º
08:45 POS N42º 44´ 44´´ E002º 52´ 08´´
08:45 Gear Up: 150 Knots
08:45 Flaps:2 at 150 Knots
08:45 Flaps:1 at 175 Knots
08:46 Flaps:0 at 184 Knots
08:52 TOC
08:52 Fuel Weight: 6128 Lb
09:00 Wind:335º@037 Knots Heading: 185º Ground Speed: 440 Knots Altitude 19173 ft
09:10 TOD
09:10 Fuel Weight: 4432 Lb
09:15 Wind:317º@025 Knots Heading: 165º Ground Speed: 317 Knots Altitude 10541 ft
09:23 Flaps:1 at 191 Knots
09:24 Flaps:2 at 181 Knots
09:24 Gear Down: 154 Knots
09:25 Flaps:3 at 155 Knots
09:25 Flaps:4 at 144 Knots
09:28 TouchDown:Rate -335 ft/min Speed: 102 Knots
09:29 VATSIM:LEPA 210900Z 24010KT 200V270 9999 FEW020 18/10 Q1019 NOSIG
09:29 Land
09:29 Wind:238º@010 Knots
09:29 Heading: 240º
09:29 Flight Duration: 00:44
09:29 Landing Weight: 68097 Lbs
09:29 POS N39º 32´ 59´´ E002º 44´ 58´´
09:32 Parking brakes on
09:32 Block to Block Duration: 00:50
09:32 Final Fuel: 3595 Lbls
09:32 Spent Fuel: 3785 Lbls
09:32 Flight Length: 242 NM
09:32 TOD Land Length: 76 NM

Exportar CSV

Powered by Drupal - Modified by Danger4k